VYYY/RGN METAR and TAF weather

Enter ICAO airport designator
Station Type Date Time Source
VYYY METAR 2021/01/22 06:30 UTC NOAA

VYYY 220630Z 35004KT 7000 NSC 30/21 Q1010 NOSIG


Station Type Date Time Source
VYYY Decoded METAR 2021/01/22 06:30 UTC NOAA

Yangon, Myanmar (VYYY) 16-46N 096-10E 15M
Jan 22, 2021 - 01:30 AM EST / 2021.01.22 0630 UTC
Wind: from the N (350 degrees) at 5 MPH (4 KT):0
Visibility: 4 mile(s):0
Temperature: 86 F (30 C)
Dew Point: 69 F (21 C)
Relative Humidity: 58%
Pressure (altimeter): 29.83 in. Hg (1010 hPa)
ob: VYYY 220630Z 35004KT 7000 NSC 30/21 Q1010 NOSIG
cycle: 6

Station Type Date Time Source
VYYY TAF 2021/01/22 06:00 UTC NOAA

TAF VYYY 220500Z 2206/2306 12007KT 7000 SCT020 TX32/2212 TN18/2223
TEMPO 2207/2212 21008KT 170V260 6000 SCT020

Example: see airport list